sensor_id;sensor_type;location;lat;lon;timestamp;temperature;humidity
57242;DHT22;43095;53.302;5.786;2022-09-01T00:00:24;15.70;99.90
57242;DHT22;43095;53.302;5.786;2022-09-01T00:03:13;15.70;99.90
57242;DHT22;43095;53.302;5.786;2022-09-01T00:05:59;15.60;99.90
57242;DHT22;43095;53.302;5.786;2022-09-01T00:08:45;15.50;99.90
57242;DHT22;43095;53.302;5.786;2022-09-01T00:11:31;15.50;99.90
57242;DHT22;43095;53.302;5.786;2022-09-01T00:14:22;15.50;99.90
57242;DHT22;43095;53.302;5.786;2022-09-01T00:17:14;15.50;99.90
57242;DHT22;43095;53.302;5.786;2022-09-01T00:20:00;15.40;99.90
57242;DHT22;43095;53.302;5.786;2022-09-01T00:22:46;15.40;99.90
57242;DHT22;43095;53.302;5.786;2022-09-01T00:25:31;15.30;99.90
57242;DHT22;43095;53.302;5.786;2022-09-01T00:28:17;15.30;99.90
57242;DHT22;43095;53.302;5.786;2022-09-01T00:31:04;15.30;99.90
57242;DHT22;43095;53.302;5.786;2022-09-01T00:33:51;15.30;99.90
57242;DHT22;43095;53.302;5.786;2022-09-01T00:36:37;15.20;99.90
57242;DHT22;43095;53.302;5.786;2022-09-01T00:39:23;15.20;99.90
57242;DHT22;43095;53.302;5.786;2022-09-01T00:42:08;15.10;99.90
57242;DHT22;43095;53.302;5.786;2022-09-01T00:44:54;15.10;99.90
57242;DHT22;43095;53.302;5.786;2022-09-01T00:47:39;15.10;99.90
57242;DHT22;43095;53.302;5.786;2022-09-01T00:50:25;15.00;99.90
57242;DHT22;43095;53.302;5.786;2022-09-01T00:53:11;15.00;99.90
57242;DHT22;43095;53.302;5.786;2022-09-01T00:55:58;14.90;99.90
57242;DHT22;43095;53.302;5.786;2022-09-01T00:58:44;14.90;99.90
57242;DHT22;43095;53.302;5.786;2022-09-01T01:01:30;14.80;99.90
57242;DHT22;43095;53.302;5.786;2022-09-01T01:04:16;14.80;99.90
57242;DHT22;43095;53.302;5.786;2022-09-01T01:07:02;14.70;99.90
57242;DHT22;43095;53.302;5.786;2022-09-01T01:09:49;14.70;99.90
57242;DHT22;43095;53.302;5.786;2022-09-01T01:12:35;14.70;99.90
57242;DHT22;43095;53.302;5.786;2022-09-01T01:15:22;14.60;99.90
57242;DHT22;43095;53.302;5.786;2022-09-01T01:18:11;14.50;99.90
57242;DHT22;43095;53.302;5.786;2022-09-01T01:21:05;14.50;99.90
57242;DHT22;43095;53.302;5.786;2022-09-01T01:24:26;14.40;99.90
57242;DHT22;43095;53.302;5.786;2022-09-01T01:27:12;14.40;99.90
57242;DHT22;43095;53.302;5.786;2022-09-01T01:30:00;14.30;99.90
57242;DHT22;43095;53.302;5.786;2022-09-01T01:32:48;14.30;99.90
57242;DHT22;43095;53.302;5.786;2022-09-01T01:35:34;14.30;99.90
57242;DHT22;43095;53.302;5.786;2022-09-01T01:38:20;14.20;99.90
57242;DHT22;43095;53.302;5.786;2022-09-01T01:41:09;14.20;99.90
57242;DHT22;43095;53.302;5.786;2022-09-01T01:43:58;14.20;99.90
57242;DHT22;43095;53.302;5.786;2022-09-01T01:46:49;14.20;99.90
57242;DHT22;43095;53.302;5.786;2022-09-01T01:49:35;14.10;99.90
57242;DHT22;43095;53.302;5.786;2022-09-01T01:52:21;14.10;99.90
57242;DHT22;43095;53.302;5.786;2022-09-01T01:55:11;14.10;99.90
57242;DHT22;43095;53.302;5.786;2022-09-01T01:58:02;14.10;99.90
57242;DHT22;43095;53.302;5.786;2022-09-01T02:00:52;14.00;99.90
57242;DHT22;43095;53.302;5.786;2022-09-01T02:03:39;14.10;99.90
57242;DHT22;43095;53.302;5.786;2022-09-01T02:06:26;14.00;99.90
57242;DHT22;43095;53.302;5.786;2022-09-01T02:09:17;14.00;99.90
57242;DHT22;43095;53.302;5.786;2022-09-01T02:12:04;13.90;99.90
57242;DHT22;43095;53.302;5.786;2022-09-01T02:14:52;13.90;99.90
57242;DHT22;43095;53.302;5.786;2022-09-01T02:17:39;13.90;99.90
57242;DHT22;43095;53.302;5.786;2022-09-01T02:20:27;13.90;99.90
57242;DHT22;43095;53.302;5.786;2022-09-01T02:23:15;13.90;99.90
57242;DHT22;43095;53.302;5.786;2022-09-01T02:26:02;13.90;99.90
57242;DHT22;43095;53.302;5.786;2022-09-01T02:29:05;14.00;99.90
57242;DHT22;43095;53.302;5.786;2022-09-01T02:31:56;13.90;99.90
57242;DHT22;43095;53.302;5.786;2022-09-01T02:34:42;14.00;99.90
57242;DHT22;43095;53.302;5.786;2022-09-01T02:37:28;14.00;99.90
57242;DHT22;43095;53.302;5.786;2022-09-01T02:40:13;13.90;99.90
57242;DHT22;43095;53.302;5.786;2022-09-01T02:43:00;13.90;99.90
57242;DHT22;43095;53.302;5.786;2022-09-01T02:45:48;13.90;99.90
57242;DHT22;43095;53.302;5.786;2022-09-01T02:48:41;13.90;99.90
57242;DHT22;43095;53.302;5.786;2022-09-01T02:51:30;13.90;99.90
57242;DHT22;43095;53.302;5.786;2022-09-01T02:54:16;13.90;99.90
57242;DHT22;43095;53.302;5.786;2022-09-01T02:57:03;14.00;99.90
57242;DHT22;43095;53.302;5.786;2022-09-01T02:59:49;14.00;99.90
57242;DHT22;43095;53.302;5.786;2022-09-01T03:02:34;14.00;99.90
57242;DHT22;43095;53.302;5.786;2022-09-01T03:05:23;14.10;99.90
57242;DHT22;43095;53.302;5.786;2022-09-01T03:08:13;14.00;99.90
57242;DHT22;43095;53.302;5.786;2022-09-01T03:11:01;14.10;99.90
57242;DHT22;43095;53.302;5.786;2022-09-01T03:13:47;14.00;99.90
57242;DHT22;43095;53.302;5.786;2022-09-01T03:16:34;14.00;99.90
57242;DHT22;43095;53.302;5.786;2022-09-01T03:19:19;14.00;99.90
57242;DHT22;43095;53.302;5.786;2022-09-01T03:22:05;14.00;99.90
57242;DHT22;43095;53.302;5.786;2022-09-01T03:24:52;13.90;99.90
57242;DHT22;43095;53.302;5.786;2022-09-01T03:27:37;13.90;99.90
57242;DHT22;43095;53.302;5.786;2022-09-01T03:30:24;13.90;99.90
57242;DHT22;43095;53.302;5.786;2022-09-01T03:33:09;13.90;99.90
57242;DHT22;43095;53.302;5.786;2022-09-01T03:35:55;13.70;99.90
57242;DHT22;43095;53.302;5.786;2022-09-01T03:38:41;13.70;99.90
57242;DHT22;43095;53.302;5.786;2022-09-01T03:41:29;13.60;99.90
57242;DHT22;43095;53.302;5.786;2022-09-01T03:44:15;13.60;99.90
57242;DHT22;43095;53.302;5.786;2022-09-01T03:47:02;13.50;99.90
57242;DHT22;43095;53.302;5.786;2022-09-01T03:49:50;13.50;99.90
57242;DHT22;43095;53.302;5.786;2022-09-01T03:52:36;13.50;99.90
57242;DHT22;43095;53.302;5.786;2022-09-01T03:55:30;13.50;99.90
57242;DHT22;43095;53.302;5.786;2022-09-01T03:58:18;13.50;99.90
57242;DHT22;43095;53.302;5.786;2022-09-01T04:01:03;13.50;99.90
57242;DHT22;43095;53.302;5.786;2022-09-01T04:03:53;13.50;99.90
57242;DHT22;43095;53.302;5.786;2022-09-01T04:06:44;13.50;99.90
57242;DHT22;43095;53.302;5.786;2022-09-01T04:09:32;13.40;99.90
57242;DHT22;43095;53.302;5.786;2022-09-01T04:12:19;13.40;99.90
57242;DHT22;43095;53.302;5.786;2022-09-01T04:15:09;13.50;99.90
57242;DHT22;43095;53.302;5.786;2022-09-01T04:17:55;13.40;99.90
57242;DHT22;43095;53.302;5.786;2022-09-01T04:21:06;13.50;99.90
57242;DHT22;43095;53.302;5.786;2022-09-01T04:23:52;13.50;99.90
57242;DHT22;43095;53.302;5.786;2022-09-01T04:26:42;13.50;99.90
57242;DHT22;43095;53.302;5.786;2022-09-01T04:29:31;13.50;99.90
57242;DHT22;43095;53.302;5.786;2022-09-01T04:32:19;13.50;99.90
57242;DHT22;43095;53.302;5.786;2022-09-01T04:35:10;13.50;99.90
57242;DHT22;43095;53.302;5.786;2022-09-01T04:38:01;13.40;99.90
57242;DHT22;43095;53.302;5.786;2022-09-01T04:40:47;13.40;99.90
57242;DHT22;43095;53.302;5.786;2022-09-01T04:43:35;13.30;99.90
57242;DHT22;43095;53.302;5.786;2022-09-01T04:46:23;13.30;99.90
57242;DHT22;43095;53.302;5.786;2022-09-01T04:49:09;13.30;99.90
57242;DHT22;43095;53.302;5.786;2022-09-01T04:51:58;13.30;99.90
57242;DHT22;43095;53.302;5.786;2022-09-01T04:54:44;13.30;99.90
57242;DHT22;43095;53.302;5.786;2022-09-01T04:57:30;13.30;99.90
57242;DHT22;43095;53.302;5.786;2022-09-01T05:00:18;13.30;99.90
57242;DHT22;43095;53.302;5.786;2022-09-01T05:03:07;13.40;99.90
57242;DHT22;43095;53.302;5.786;2022-09-01T05:06:19;13.40;99.90
57242;DHT22;43095;53.302;5.786;2022-09-01T05:09:16;13.40;99.90
57242;DHT22;43095;53.302;5.786;2022-09-01T05:12:10;13.40;99.90
57242;DHT22;43095;53.302;5.786;2022-09-01T05:15:02;13.50;99.90
57242;DHT22;43095;53.302;5.786;2022-09-01T05:17:51;13.50;99.90
57242;DHT22;43095;53.302;5.786;2022-09-01T05:20:40;13.50;99.90
57242;DHT22;43095;53.302;5.786;2022-09-01T05:23:27;13.50;99.90
57242;DHT22;43095;53.302;5.786;2022-09-01T05:26:18;13.50;99.90
57242;DHT22;43095;53.302;5.786;2022-09-01T05:29:05;13.50;99.90
57242;DHT22;43095;53.302;5.786;2022-09-01T05:31:59;13.60;99.90
57242;DHT22;43095;53.302;5.786;2022-09-01T05:34:44;13.60;99.90
57242;DHT22;43095;53.302;5.786;2022-09-01T05:37:32;13.60;99.90
57242;DHT22;43095;53.302;5.786;2022-09-01T05:40:18;13.60;99.90
57242;DHT22;43095;53.302;5.786;2022-09-01T05:43:05;13.70;99.90
57242;DHT22;43095;53.302;5.786;2022-09-01T05:45:51;13.70;99.90
57242;DHT22;43095;53.302;5.786;2022-09-01T05:48:54;13.70;99.90
57242;DHT22;43095;53.302;5.786;2022-09-01T05:51:43;13.80;99.90
57242;DHT22;43095;53.302;5.786;2022-09-01T05:54:34;13.90;99.90
57242;DHT22;43095;53.302;5.786;2022-09-01T05:57:20;13.90;99.90
57242;DHT22;43095;53.302;5.786;2022-09-01T06:00:21;14.00;99.90
57242;DHT22;43095;53.302;5.786;2022-09-01T06:03:08;14.10;99.90
57242;DHT22;43095;53.302;5.786;2022-09-01T06:06:04;14.20;99.90
57242;DHT22;43095;53.302;5.786;2022-09-01T06:08:57;14.20;99.90
57242;DHT22;43095;53.302;5.786;2022-09-01T06:11:45;14.20;99.90
57242;DHT22;43095;53.302;5.786;2022-09-01T06:14:31;14.30;99.90
57242;DHT22;43095;53.302;5.786;2022-09-01T06:17:19;14.40;99.90
57242;DHT22;43095;53.302;5.786;2022-09-01T06:20:15;14.50;99.90
57242;DHT22;43095;53.302;5.786;2022-09-01T06:23:03;14.60;99.90
57242;DHT22;43095;53.302;5.786;2022-09-01T06:25:48;14.70;99.90
57242;DHT22;43095;53.302;5.786;2022-09-01T06:28:38;14.70;99.90
57242;DHT22;43095;53.302;5.786;2022-09-01T06:31:28;14.70;99.90
57242;DHT22;43095;53.302;5.786;2022-09-01T06:34:24;14.80;99.90
57242;DHT22;43095;53.302;5.786;2022-09-01T06:37:11;14.90;99.90
57242;DHT22;43095;53.302;5.786;2022-09-01T06:40:00;15.00;99.90
57242;DHT22;43095;53.302;5.786;2022-09-01T06:42:49;15.00;99.90
57242;DHT22;43095;53.302;5.786;2022-09-01T06:45:42;15.20;99.90
57242;DHT22;43095;53.302;5.786;2022-09-01T06:48:29;15.40;99.90
57242;DHT22;43095;53.302;5.786;2022-09-01T06:51:21;15.50;99.90
57242;DHT22;43095;53.302;5.786;2022-09-01T06:54:10;15.60;99.90
57242;DHT22;43095;53.302;5.786;2022-09-01T06:57:00;15.50;99.90
57242;DHT22;43095;53.302;5.786;2022-09-01T07:00:10;15.60;99.90
57242;DHT22;43095;53.302;5.786;2022-09-01T07:03:08;15.70;99.90
57242;DHT22;43095;53.302;5.786;2022-09-01T07:06:26;16.00;99.90
57242;DHT22;43095;53.302;5.786;2022-09-01T07:09:36;16.10;99.90
57242;DHT22;43095;53.302;5.786;2022-09-01T07:12:51;16.20;99.90
57242;DHT22;43095;53.302;5.786;2022-09-01T07:15:53;16.20;99.90
57242;DHT22;43095;53.302;5.786;2022-09-01T07:19:02;16.30;99.90
57242;DHT22;43095;53.302;5.786;2022-09-01T07:21:49;16.30;99.90
57242;DHT22;43095;53.302;5.786;2022-09-01T07:24:53;16.40;99.90
57242;DHT22;43095;53.302;5.786;2022-09-01T07:28:19;16.50;99.90
57242;DHT22;43095;53.302;5.786;2022-09-01T07:31:16;16.60;99.90
57242;DHT22;43095;53.302;5.786;2022-09-01T07:34:25;16.70;99.90
57242;DHT22;43095;53.302;5.786;2022-09-01T07:37:32;16.70;99.90
57242;DHT22;43095;53.302;5.786;2022-09-01T07:40:42;16.70;99.90
57242;DHT22;43095;53.302;5.786;2022-09-01T07:44:08;16.80;99.90
57242;DHT22;43095;53.302;5.786;2022-09-01T07:47:01;16.90;99.90
57242;DHT22;43095;53.302;5.786;2022-09-01T07:50:09;17.00;99.90
57242;DHT22;43095;53.302;5.786;2022-09-01T07:53:25;17.10;99.90
57242;DHT22;43095;53.302;5.786;2022-09-01T07:56:13;17.20;99.90
57242;DHT22;43095;53.302;5.786;2022-09-01T07:59:04;17.20;99.90
57242;DHT22;43095;53.302;5.786;2022-09-01T08:01:52;17.30;99.90
57242;DHT22;43095;53.302;5.786;2022-09-01T08:04:38;17.40;99.90
57242;DHT22;43095;53.302;5.786;2022-09-01T08:07:25;17.50;99.90
57242;DHT22;43095;53.302;5.786;2022-09-01T08:10:12;17.50;99.90
57242;DHT22;43095;53.302;5.786;2022-09-01T08:13:10;17.60;99.90
57242;DHT22;43095;53.302;5.786;2022-09-01T08:16:05;17.60;99.90
57242;DHT22;43095;53.302;5.786;2022-09-01T08:18:53;17.70;99.90
57242;DHT22;43095;53.302;5.786;2022-09-01T08:21:44;17.90;99.90
57242;DHT22;43095;53.302;5.786;2022-09-01T08:24:53;18.10;99.90
57242;DHT22;43095;53.302;5.786;2022-09-01T08:27:40;18.20;99.90
57242;DHT22;43095;53.302;5.786;2022-09-01T08:30:26;18.30;99.90
57242;DHT22;43095;53.302;5.786;2022-09-01T08:33:13;18.30;99.90
57242;DHT22;43095;53.302;5.786;2022-09-01T08:36:02;18.40;99.90
57242;DHT22;43095;53.302;5.786;2022-09-01T08:38:48;18.40;99.90
57242;DHT22;43095;53.302;5.786;2022-09-01T08:41:42;18.40;99.90
57242;DHT22;43095;53.302;5.786;2022-09-01T08:48:20;18.70;99.90
57242;DHT22;43095;53.302;5.786;2022-09-01T08:54:49;18.90;99.90
57242;DHT22;43095;53.302;5.786;2022-09-01T08:57:39;19.00;99.90
57242;DHT22;43095;53.302;5.786;2022-09-01T09:00:43;19.20;99.90
57242;DHT22;43095;53.302;5.786;2022-09-01T09:10:13;19.60;99.90
57242;DHT22;43095;53.302;5.786;2022-09-01T09:16:03;19.80;99.90
57242;DHT22;43095;53.302;5.786;2022-09-01T09:19:00;19.90;99.90
57242;DHT22;43095;53.302;5.786;2022-09-01T09:21:48;19.80;99.90
57242;DHT22;43095;53.302;5.786;2022-09-01T09:24:54;19.80;99.90
57242;DHT22;43095;53.302;5.786;2022-09-01T09:27:45;19.80;99.90
57242;DHT22;43095;53.302;5.786;2022-09-01T09:30:31;19.90;99.90
57242;DHT22;43095;53.302;5.786;2022-09-01T09:33:38;20.00;99.90
57242;DHT22;43095;53.302;5.786;2022-09-01T09:36:36;20.00;99.90
57242;DHT22;43095;53.302;5.786;2022-09-01T09:39:22;20.10;99.90
57242;DHT22;43095;53.302;5.786;2022-09-01T09:42:13;20.20;99.90
57242;DHT22;43095;53.302;5.786;2022-09-01T09:45:00;20.30;99.90
57242;DHT22;43095;53.302;5.786;2022-09-01T09:47:49;20.40;99.90
57242;DHT22;43095;53.302;5.786;2022-09-01T09:50:39;20.40;96.30
57242;DHT22;43095;53.302;5.786;2022-09-01T09:53:28;20.50;99.90
57242;DHT22;43095;53.302;5.786;2022-09-01T09:56:18;20.60;99.90
57242;DHT22;43095;53.302;5.786;2022-09-01T09:59:20;20.80;99.90
57242;DHT22;43095;53.302;5.786;2022-09-01T10:02:32;20.80;99.90
57242;DHT22;43095;53.302;5.786;2022-09-01T10:08:38;21.10;99.90
57242;DHT22;43095;53.302;5.786;2022-09-01T10:11:37;21.20;93.20
57242;DHT22;43095;53.302;5.786;2022-09-01T10:14:41;21.10;93.10
57242;DHT22;43095;53.302;5.786;2022-09-01T10:17:42;21.40;90.50
57242;DHT22;43095;53.302;5.786;2022-09-01T10:20:29;21.50;83.20
57242;DHT22;43095;53.302;5.786;2022-09-01T10:23:15;21.60;82.20
57242;DHT22;43095;53.302;5.786;2022-09-01T10:26:13;21.60;83.90
57242;DHT22;43095;53.302;5.786;2022-09-01T10:29:16;21.60;81.20
57242;DHT22;43095;53.302;5.786;2022-09-01T10:32:07;21.60;80.60
57242;DHT22;43095;53.302;5.786;2022-09-01T10:35:35;21.70;83.30
57242;DHT22;43095;53.302;5.786;2022-09-01T10:38:27;21.60;85.00
57242;DHT22;43095;53.302;5.786;2022-09-01T10:41:42;21.70;84.60
57242;DHT22;43095;53.302;5.786;2022-09-01T10:45:17;22.10;85.70
57242;DHT22;43095;53.302;5.786;2022-09-01T10:47:36;22.10;90.00
57242;DHT22;43095;53.302;5.786;2022-09-01T10:50:31;22.50;83.10
57242;DHT22;43095;53.302;5.786;2022-09-01T10:56:45;22.50;79.00
57242;DHT22;43095;53.302;5.786;2022-09-01T10:59:36;22.40;66.80
57242;DHT22;43095;53.302;5.786;2022-09-01T11:02:28;22.10;71.00
57242;DHT22;43095;53.302;5.786;2022-09-01T11:05:20;22.20;76.50
57242;DHT22;43095;53.302;5.786;2022-09-01T11:14:23;21.50;93.10
57242;DHT22;43095;53.302;5.786;2022-09-01T11:17:23;21.40;92.70
57242;DHT22;43095;53.302;5.786;2022-09-01T11:23:22;21.50;93.00
57242;DHT22;43095;53.302;5.786;2022-09-01T11:26:45;21.40;91.70
57242;DHT22;43095;53.302;5.786;2022-09-01T11:32:37;21.10;91.70
57242;DHT22;43095;53.302;5.786;2022-09-01T11:35:31;21.00;92.20
57242;DHT22;43095;53.302;5.786;2022-09-01T11:38:17;21.10;92.00
57242;DHT22;43095;53.302;5.786;2022-09-01T11:41:03;21.30;89.50
57242;DHT22;43095;53.302;5.786;2022-09-01T11:43:55;21.10;83.40
57242;DHT22;43095;53.302;5.786;2022-09-01T11:46:42;21.00;83.40
57242;DHT22;43095;53.302;5.786;2022-09-01T11:49:33;21.30;83.90
57242;DHT22;43095;53.302;5.786;2022-09-01T11:52:21;21.40;80.30
57242;DHT22;43095;53.302;5.786;2022-09-01T11:55:08;21.60;82.90
57242;DHT22;43095;53.302;5.786;2022-09-01T11:57:54;21.90;81.30
57242;DHT22;43095;53.302;5.786;2022-09-01T12:00:41;22.10;86.40
57242;DHT22;43095;53.302;5.786;2022-09-01T12:03:28;22.50;88.10
57242;DHT22;43095;53.302;5.786;2022-09-01T12:06:24;22.40;67.00
57242;DHT22;43095;53.302;5.786;2022-09-01T12:09:10;22.70;62.50
57242;DHT22;43095;53.302;5.786;2022-09-01T12:11:56;22.50;62.60
57242;DHT22;43095;53.302;5.786;2022-09-01T12:14:42;22.20;62.00
57242;DHT22;43095;53.302;5.786;2022-09-01T12:17:47;22.30;62.30
57242;DHT22;43095;53.302;5.786;2022-09-01T12:20:35;22.30;64.70
57242;DHT22;43095;53.302;5.786;2022-09-01T12:23:33;22.20;62.80
57242;DHT22;43095;53.302;5.786;2022-09-01T12:26:25;22.20;67.20
57242;DHT22;43095;53.302;5.786;2022-09-01T12:29:12;22.20;69.10
57242;DHT22;43095;53.302;5.786;2022-09-01T12:31:59;22.20;65.90
57242;DHT22;43095;53.302;5.786;2022-09-01T12:34:58;22.20;62.50
57242;DHT22;43095;53.302;5.786;2022-09-01T12:37:44;22.80;62.20
57242;DHT22;43095;53.302;5.786;2022-09-01T12:40:32;22.50;59.60
57242;DHT22;43095;53.302;5.786;2022-09-01T12:43:34;22.50;59.80
57242;DHT22;43095;53.302;5.786;2022-09-01T12:46:41;22.50;57.90
57242;DHT22;43095;53.302;5.786;2022-09-01T12:49:43;22.40;57.30
57242;DHT22;43095;53.302;5.786;2022-09-01T12:52:52;22.50;57.20
57242;DHT22;43095;53.302;5.786;2022-09-01T12:55:39;22.40;58.90
57242;DHT22;43095;53.302;5.786;2022-09-01T12:58:32;22.50;58.60
57242;DHT22;43095;53.302;5.786;2022-09-01T13:01:28;22.90;59.50
57242;DHT22;43095;53.302;5.786;2022-09-01T13:04:29;23.20;58.70
57242;DHT22;43095;53.302;5.786;2022-09-01T13:07:18;23.50;58.10
57242;DHT22;43095;53.302;5.786;2022-09-01T13:10:04;23.50;56.60
57242;DHT22;43095;53.302;5.786;2022-09-01T13:12:51;23.10;58.00
57242;DHT22;43095;53.302;5.786;2022-09-01T13:15:39;22.70;58.90
57242;DHT22;43095;53.302;5.786;2022-09-01T13:18:27;22.50;58.10
57242;DHT22;43095;53.302;5.786;2022-09-01T13:21:13;22.60;58.20
57242;DHT22;43095;53.302;5.786;2022-09-01T13:24:00;23.00;58.40
57242;DHT22;43095;53.302;5.786;2022-09-01T13:26:46;23.20;57.60
57242;DHT22;43095;53.302;5.786;2022-09-01T13:29:59;23.00;55.20
57242;DHT22;43095;53.302;5.786;2022-09-01T13:32:46;23.00;56.40
57242;DHT22;43095;53.302;5.786;2022-09-01T13:35:53;23.20;58.50
57242;DHT22;43095;53.302;5.786;2022-09-01T13:38:39;22.90;60.30
57242;DHT22;43095;53.302;5.786;2022-09-01T13:41:25;22.90;61.00
57242;DHT22;43095;53.302;5.786;2022-09-01T13:44:11;22.90;63.60
57242;DHT22;43095;53.302;5.786;2022-09-01T13:46:58;22.40;66.90
57242;DHT22;43095;53.302;5.786;2022-09-01T13:49:44;22.50;66.90
57242;DHT22;43095;53.302;5.786;2022-09-01T13:52:53;22.80;66.40
57242;DHT22;43095;53.302;5.786;2022-09-01T13:55:40;23.10;64.50
57242;DHT22;43095;53.302;5.786;2022-09-01T13:58:27;23.50;63.30
57242;DHT22;43095;53.302;5.786;2022-09-01T14:01:12;23.20;61.40
57242;DHT22;43095;53.302;5.786;2022-09-01T14:03:58;23.60;60.10
57242;DHT22;43095;53.302;5.786;2022-09-01T14:06:45;23.60;60.90
57242;DHT22;43095;53.302;5.786;2022-09-01T14:09:31;23.50;58.70
57242;DHT22;43095;53.302;5.786;2022-09-01T14:12:16;23.40;61.70
57242;DHT22;43095;53.302;5.786;2022-09-01T14:15:03;23.40;62.40
57242;DHT22;43095;53.302;5.786;2022-09-01T14:18:02;23.70;62.80
57242;DHT22;43095;53.302;5.786;2022-09-01T14:20:50;23.70;64.10
57242;DHT22;43095;53.302;5.786;2022-09-01T14:23:36;23.50;60.80
57242;DHT22;43095;53.302;5.786;2022-09-01T14:26:22;23.40;61.90
57242;DHT22;43095;53.302;5.786;2022-09-01T14:29:12;23.60;63.40
57242;DHT22;43095;53.302;5.786;2022-09-01T14:31:58;23.40;61.20
57242;DHT22;43095;53.302;5.786;2022-09-01T14:34:44;23.40;61.80
57242;DHT22;43095;53.302;5.786;2022-09-01T14:37:30;23.50;60.90
57242;DHT22;43095;53.302;5.786;2022-09-01T14:40:16;23.60;58.90
57242;DHT22;43095;53.302;5.786;2022-09-01T14:43:04;23.60;59.40
57242;DHT22;43095;53.302;5.786;2022-09-01T14:46:04;23.50;58.70
57242;DHT22;43095;53.302;5.786;2022-09-01T14:48:51;23.60;57.70
57242;DHT22;43095;53.302;5.786;2022-09-01T14:51:38;23.50;58.50
57242;DHT22;43095;53.302;5.786;2022-09-01T14:54:44;23.50;57.90
57242;DHT22;43095;53.302;5.786;2022-09-01T14:57:30;23.30;58.60
57242;DHT22;43095;53.302;5.786;2022-09-01T15:00:22;23.30;58.00
57242;DHT22;43095;53.302;5.786;2022-09-01T15:03:09;23.30;58.80
57242;DHT22;43095;53.302;5.786;2022-09-01T15:05:55;23.60;57.20
57242;DHT22;43095;53.302;5.786;2022-09-01T15:08:41;23.20;57.40
57242;DHT22;43095;53.302;5.786;2022-09-01T15:11:27;23.40;58.70
57242;DHT22;43095;53.302;5.786;2022-09-01T15:14:13;23.10;58.50
57242;DHT22;43095;53.302;5.786;2022-09-01T15:16:59;23.20;58.60
57242;DHT22;43095;53.302;5.786;2022-09-01T15:19:45;23.40;58.80
57242;DHT22;43095;53.302;5.786;2022-09-01T15:22:30;23.10;59.70
57242;DHT22;43095;53.302;5.786;2022-09-01T15:25:17;23.20;59.10
57242;DHT22;43095;53.302;5.786;2022-09-01T15:28:03;23.40;58.40
57242;DHT22;43095;53.302;5.786;2022-09-01T15:30:51;23.30;57.30
57242;DHT22;43095;53.302;5.786;2022-09-01T15:33:39;23.40;57.20
57242;DHT22;43095;53.302;5.786;2022-09-01T15:36:26;23.10;58.20
57242;DHT22;43095;53.302;5.786;2022-09-01T15:39:13;23.30;59.10
57242;DHT22;43095;53.302;5.786;2022-09-01T15:41:59;23.30;57.10
57242;DHT22;43095;53.302;5.786;2022-09-01T15:44:46;23.20;59.00
57242;DHT22;43095;53.302;5.786;2022-09-01T15:47:33;23.30;57.60
57242;DHT22;43095;53.302;5.786;2022-09-01T15:50:21;23.30;58.10
57242;DHT22;43095;53.302;5.786;2022-09-01T15:53:11;23.20;57.70
57242;DHT22;43095;53.302;5.786;2022-09-01T15:55:58;22.90;59.10
57242;DHT22;43095;53.302;5.786;2022-09-01T15:58:45;22.90;58.60
57242;DHT22;43095;53.302;5.786;2022-09-01T16:01:46;23.00;59.80
57242;DHT22;43095;53.302;5.786;2022-09-01T16:04:32;22.80;61.80
57242;DHT22;43095;53.302;5.786;2022-09-01T16:07:18;22.80;62.70
57242;DHT22;43095;53.302;5.786;2022-09-01T16:10:04;22.80;62.80
57242;DHT22;43095;53.302;5.786;2022-09-01T16:12:55;22.60;63.40
57242;DHT22;43095;53.302;5.786;2022-09-01T16:15:48;22.60;64.20
57242;DHT22;43095;53.302;5.786;2022-09-01T16:18:45;22.60;66.80
57242;DHT22;43095;53.302;5.786;2022-09-01T16:24:21;22.40;72.10
57242;DHT22;43095;53.302;5.786;2022-09-01T16:27:12;22.70;69.90
57242;DHT22;43095;53.302;5.786;2022-09-01T16:30:08;22.70;70.90
57242;DHT22;43095;53.302;5.786;2022-09-01T16:32:57;22.50;71.30
57242;DHT22;43095;53.302;5.786;2022-09-01T16:35:58;22.30;73.60
57242;DHT22;43095;53.302;5.786;2022-09-01T16:38:51;22.30;74.00
57242;DHT22;43095;53.302;5.786;2022-09-01T16:41:56;22.10;76.40
57242;DHT22;43095;53.302;5.786;2022-09-01T16:50:56;22.10;84.30
57242;DHT22;43095;53.302;5.786;2022-09-01T17:00:00;22.20;91.50
57242;DHT22;43095;53.302;5.786;2022-09-01T17:09:30;21.80;96.30
57242;DHT22;43095;53.302;5.786;2022-09-01T17:12:44;21.70;96.20
57242;DHT22;43095;53.302;5.786;2022-09-01T17:15:36;21.70;97.20
57242;DHT22;43095;53.302;5.786;2022-09-01T17:18:45;21.70;97.80
57242;DHT22;43095;53.302;5.786;2022-09-01T17:21:45;21.50;99.50
57242;DHT22;43095;53.302;5.786;2022-09-01T17:24:42;21.30;99.90
57242;DHT22;43095;53.302;5.786;2022-09-01T17:27:35;21.00;99.90
57242;DHT22;43095;53.302;5.786;2022-09-01T17:30:22;20.70;99.90
57242;DHT22;43095;53.302;5.786;2022-09-01T17:33:17;20.60;99.90
57242;DHT22;43095;53.302;5.786;2022-09-01T17:58:28;19.80;99.90
57242;DHT22;43095;53.302;5.786;2022-09-01T18:01:49;19.60;99.90
57242;DHT22;43095;53.302;5.786;2022-09-01T18:04:45;19.50;99.90
57242;DHT22;43095;53.302;5.786;2022-09-01T18:10:51;19.30;99.90
57242;DHT22;43095;53.302;5.786;2022-09-01T18:17:02;19.10;99.90
57242;DHT22;43095;53.302;5.786;2022-09-01T18:19:57;19.00;99.90
57242;DHT22;43095;53.302;5.786;2022-09-01T18:22:48;18.90;99.90
57242;DHT22;43095;53.302;5.786;2022-09-01T18:28:32;18.70;99.90
57242;DHT22;43095;53.302;5.786;2022-09-01T18:31:39;18.60;99.90
57242;DHT22;43095;53.302;5.786;2022-09-01T18:38:27;18.50;99.90
57242;DHT22;43095;53.302;5.786;2022-09-01T18:41:24;18.40;99.90
57242;DHT22;43095;53.302;5.786;2022-09-01T18:47:53;18.30;99.90
57242;DHT22;43095;53.302;5.786;2022-09-01T18:51:01;18.20;99.90
57242;DHT22;43095;53.302;5.786;2022-09-01T18:54:08;18.10;99.90
57242;DHT22;43095;53.302;5.786;2022-09-01T18:57:01;18.00;99.90
57242;DHT22;43095;53.302;5.786;2022-09-01T19:00:15;17.90;99.90
57242;DHT22;43095;53.302;5.786;2022-09-01T19:03:28;17.90;99.90
57242;DHT22;43095;53.302;5.786;2022-09-01T19:06:28;17.80;99.90
57242;DHT22;43095;53.302;5.786;2022-09-01T19:09:27;17.70;99.90
57242;DHT22;43095;53.302;5.786;2022-09-01T19:22:18;17.40;99.90
57242;DHT22;43095;53.302;5.786;2022-09-01T19:25:14;17.40;99.90
57242;DHT22;43095;53.302;5.786;2022-09-01T19:31:22;17.30;99.90
57242;DHT22;43095;53.302;5.786;2022-09-01T19:34:16;17.20;99.90
57242;DHT22;43095;53.302;5.786;2022-09-01T19:37:04;17.20;99.90
57242;DHT22;43095;53.302;5.786;2022-09-01T19:39:51;17.10;99.90
57242;DHT22;43095;53.302;5.786;2022-09-01T19:42:44;17.00;99.90
57242;DHT22;43095;53.302;5.786;2022-09-01T19:45:53;17.00;99.90
57242;DHT22;43095;53.302;5.786;2022-09-01T19:49:03;17.00;99.90
57242;DHT22;43095;53.302;5.786;2022-09-01T19:52:12;16.90;99.90
57242;DHT22;43095;53.302;5.786;2022-09-01T19:55:34;16.90;99.90